Weather observations for the past three days for
Charlevoix, Charlevoix Municipal Airport
Imperial (Metric)
Date Time (edt) Wind (mph) Vis. (mi.) Weather Sky Cond. Temperature (ºF) Relative Humidity Wind Chill (°F) Heat Index (°F) Pressure Precipitation (in)
Air Dwpt 6 hour altimeter (in) sea level (mb) 1 hr 3 hr 6 hr
Max. Min.
05 17:55 N 8 10.00 Fair CLR 75.2 59 57% 78 30.04 0.0
05 17:35 N 10 10.00 Fair CLR 75.2 60.8 61% 77 30.04 0.0
05 17:15 N 10 10.00 Fair CLR 75.2 59 57% 78 30.03 0.0
05 16:55 N 10 10.00 Fair CLR 75.2 60.8 61% 77 30.04 0.0
05 16:35 N 10 10.00 Fair CLR 75.2 59 57% 78 30.04 0.0
05 16:15 N 9 10.00 Fair CLR 75.2 60.8 61% 77 30.05 0.0
05 13:55 N 13 10.00 Fair CLR 73.4 64.4 77.5 64 74% 30.06 0.0
05 13:35 N 13 10.00 Fair CLR 73.4 62.6 69% 30.06 0.0
05 13:15 E 7 8.00 Fair CLR 77 59 54% 79 30.06 0.0
05 12:55 N 10 10.00 A Few Clouds FEW038 75.2 59 57% 78 30.06 0.0
05 12:35 N 8 10.00 A Few Clouds FEW038 75.2 62.6 65% 77 30.06 0.0
05 12:15 Vrbl 3 10.00 Fair CLR 75.2 57.2 54% 78 30.07 0.0
05 11:55 SE 7 10.00 Fair CLR 75.2 59 57% 78 30.07 0.0
05 11:35 E 7 10.00 Fair CLR 73.4 59 61% 30.07 0.0
05 11:15 Vrbl 6 10.00 Fair CLR 73.4 59 61% 30.06 0.0
05 10:55 SE 8 10.00 Fair CLR 71.6 60.8 69% 30.06 0.0
05 10:35 E 7 10.00 Fair CLR 71.6 60.8 69% 30.05 0.0
05 10:15 SE 7 10.00 Fair CLR 69.8 60.8 73% 30.04 0.0
05 09:55 E 7 10.00 Fair CLR 69.8 60.8 73% 30.04 0.0
05 09:35 E 7 10.00 Fair CLR 68 62.6 83% 30.04 0.0
05 09:15 SE 7 10.00 Fair CLR 66.2 60.8 83% 30.04 0.0
05 08:55 E 8 10.00 Fair CLR 66.2 60.8 83% 30.04 0.0
05 08:35 E 7 10.00 Fair CLR 66.2 60.8 83% 30.04 0.0
05 08:15 SE 5 10.00 Fair CLR 64.4 60.8 88% 30.03 0.0
05 07:55 SE 5 10.00 Fair CLR 64.4 60.8 67.5 63.3 88% 30.03 0.0
05 07:35 E 7 10.00 Fair CLR 64.4 60.8 88% 30.03 0.0
05 07:15 E 7 10.00 Fair CLR 64.4 60.8 88% 30.02 0.0
05 06:55 E 5 10.00 Fair CLR 64.4 59 83% 30.02 0.0
05 06:35 E 3 10.00 Fair CLR 64.4 59 83% 30.02 0.0
05 06:15 E 6 10.00 Fair CLR 64.4 59 83% 30.02 0.0
05 05:55 E 7 10.00 A Few Clouds FEW070 64.4 60.8 88% 30.01 0.0
05 05:35 E 7 10.00 Partly Cloudy SCT070 64.4 60.8 88% 30.01 0.0
05 05:15 E 7 10.00 Fair CLR 64.4 60.8 88% 30.01 0.0
05 04:55 E 7 10.00 Partly Cloudy SCT070 64.4 60.8 88% 30.01 0.0
05 04:35 E 6 10.00 Mostly Cloudy BKN070 66.2 62.6 88% 30 0.0
05 04:15 E 6 10.00 Overcast BKN047 OVC070 66.2 62.6 88% 30 0.0
05 03:55 E 6 10.00 Overcast OVC047 66.2 62.6 88% 30 0.0
05 03:35 NE 6 10.00 Overcast OVC045 66.2 62.6 88% 30.01 0.0
05 03:15 NE 5 10.00 Overcast OVC043 66.2 62.6 88% 30 0.0
05 02:55 E 5 10.00 Overcast OVC041 68 64.4 88% 30 0.0
05 02:35 E 6 10.00 Overcast OVC039 68 64.4 88% 30 0.0
05 02:15 E 7 10.00 Overcast OVC037 68 64.4 88% 30 0.0
05 01:55 E 8 10.00 Overcast OVC037 68 64.4 70.3 66.4 88% 30 0.0
05 01:35 E 8 10.00 Overcast OVC037 68 64.4 88% 30 0.0
05 01:15 E 7 10.00 Overcast OVC037 68 64.4 88% 30 0.0
05 00:55 E 9 10.00 Partly Cloudy SCT037 68 64.4 88% 29.99 0.0
05 00:35 E 8 10.00 Fair CLR 66.2 62.6 88% 29.99 0.0
05 00:15 E 9 10.00 Fair CLR 66.2 62.6 88% 29.99 0.0
04 23:55 E 10 10.00 Fair CLR 68 64.4 88% 29.99 0.0
04 23:35 E 8 10.00 A Few Clouds FEW040 66.2 62.6 88% 29.99 0.0
04 23:15 E 8 10.00 Partly Cloudy SCT040 68 62.6 83% 30 0.0
04 22:55 E 9 10.00 Fair CLR 68 64.4 88% 30 0.0
04 22:35 E 9 10.00 Fair CLR 68 62.6 83% 29.99 0.0
04 22:15 SE 7 10.00 Fair CLR 68 62.6 83% 29.99 0.0
04 21:55 E 8 10.00 Mostly Cloudy BKN043 68 62.6 83% 30 0.0
04 21:35 E 8 10.00 Overcast FEW022 OVC043 68 62.6 83% 30 0.0
04 21:15 E 8 10.00 Overcast FEW022 OVC047 68 64.4 88% 30 0.0
04 20:55 E 10 10.00 Mostly Cloudy BKN045 68 64.4 88% 29.99 0.0
04 20:35 E 10 10.00 Overcast OVC041 68 64.4 88% 29.98 0.0
04 20:15 E 12 10.00 Overcast FEW020 OVC039 68 64.4 88% 29.98 0.0
04 19:55 E 12 10.00 Overcast FEW020 OVC035 68 64.4 73.4 68.5 88% 29.98 0.0
04 19:35 E 10 10.00 Overcast SCT033 OVC041 69.8 64.4 83% 29.98 0.0
04 19:15 E 12 10.00 Overcast OVC039 68 64.4 88% 29.97 0.0
04 18:55 E 9 10.00 Overcast FEW021 OVC039 69.8 64.4 83% 29.97 0.0
04 18:35 E 10 10.00 Overcast BKN021 OVC039 69.8 64.4 83% 29.96 0.0
04 18:15 E 9 10.00 Overcast OVC039 69.8 64.4 83% 29.96 0.0
04 17:55 E 9 10.00 Overcast FEW022 FEW027 OVC037 69.8 64.4 83% 29.96 0.0
04 17:35 E 10 10.00 Overcast SCT023 SCT027 OVC045 69.8 64.4 83% 29.96 0.0
04 17:15 E 9 10.00 Overcast BKN023 BKN029 OVC047 69.8 64.4 83% 29.96 0.0
04 16:55 E 12 10.00 Overcast OVC023 69.8 64.4 83% 29.96 0.0
04 16:35 E 12 10.00 Overcast BKN023 OVC050 69.8 64.4 83% 29.96 0.0
04 16:15 E 12 10.00 Overcast SCT025 OVC050 69.8 64.4 83% 29.96 0.0
04 15:35 E 10 10.00 Overcast BKN022 OVC060 71.6 64.4 78% 29.96 0.0
04 15:15 E 10 10.00 Overcast OVC020 73.4 64.4 74% 29.95 0.0
04 14:55 E 9 10.00 Overcast OVC018 71.6 64.4 78% 29.96 0.0
04 14:35 E 10 10.00 Overcast OVC020 73.4 64.4 74% 29.95 0.0
04 14:15 E 6 10.00 Overcast BKN022 OVC028 71.6 64.4 78% 29.96 0.0
04 13:55 E 7 10.00 Overcast OVC028 71.6 64.4 73.2 64.8 78% 29.96 0.0
04 13:35 E 9 10.00 Overcast BKN030 BKN041 OVC050 73.4 64.4 74% 29.96 0.0
04 13:15 E 12 10.00 Overcast FEW030 SCT041 OVC050 71.6 64.4 78% 29.96 0.0
04 12:55 E 9 10.00 Overcast SCT032 OVC046 71.6 64.4 78% 29.96 0.0
04 12:35 E 9 10.00 Overcast BKN042 OVC048 69.8 64.4 83% 29.97 0.0
04 12:15 E 12 10.00 Overcast BKN011 OVC041 69.8 62.6 78% 29.96 0.0
04 11:55 E 10 10.00 Overcast BKN011 BKN021 OVC041 69.8 62.6 78% 29.96 0.0
04 11:35 E 14 10.00 Mostly Cloudy BKN016 BKN025 69.8 62.6 78% 29.95 0.0
04 11:15 E 10 10.00 Overcast OVC014 68 62.6 83% 29.98 0.0
04 10:55 E 9 10.00 Overcast BKN014 OVC024 68 62.6 83% 29.99 0.0
04 10:35 E 9 10.00 Overcast FEW014 OVC024 68 60.8 78% 29.99 0.0
04 10:15 E 12 10.00 Mostly Cloudy SCT016 BKN026 68 62.6 83% 29.98 0.0
04 09:55 SE 8 10.00 Partly Cloudy FEW016 SCT026 68 62.6 83% 29.99 0.0
04 09:35 E 10 10.00 A Few Clouds FEW022 FEW120 66.2 62.6 88% 29.97 0.0
04 09:15 E 12 10.00 Mostly Cloudy BKN022 BKN120 66.2 60.8 83% 29.97 0.0
04 08:55 E 14 10.00 Partly Cloudy SCT022 66.2 60.8 83% 29.97 0.0
04 08:35 E 13 10.00 Partly Cloudy SCT020 66.2 60.8 83% 29.96 0.0
04 08:15 E 12 10.00 Mostly Cloudy BKN020 66.2 60.8 83% 29.97 0.0
04 07:55 E 9 10.00 Fair CLR 64.4 60.8 67.6 64.2 88% 29.96 0.0 0.01
04 07:35 E 9 10.00 Fair CLR 64.4 62.6 94% 29.96 0.0
04 07:15 E 14 10.00 Light Rain FEW100 SCT120 64.4 62.6 94% 29.94 0.0
04 06:55 NE 12 10.00 Light Rain FEW022 FEW039 OVC110 64.4 62.6 94% 29.98 0.0 0.01
04 06:35 NE 14 9.00 Light Rain BKN020 BKN027 OVC039 66.2 64.4 94% 29.98 0.0
04 06:15 N 8 10.00 Overcast BKN027 BKN044 OVC110 66.2 64.4 94% 29.98 0.0
04 05:55 SE 3 10.00 Mostly Cloudy SCT085 BKN110 66.2 64.4 94% 29.96 0.0
04 05:35 S 5 10.00 Partly Cloudy SCT046 SCT100 66.2 64.4 94% 29.96 0.0
04 05:15 SE 3 10.00 Overcast OVC046 66.2 64.4 94% 29.96 0.0
04 04:55 E 5 10.00 Partly Cloudy SCT046 66.2 64.4 94% 29.95 0.0
04 04:35 E 6 10.00 Fair CLR 66.2 64.4 94% 29.94 0.0
04 04:15 SE 5 10.00 A Few Clouds FEW048 FEW120 66.2 64.4 94% 29.95 0.0
04 03:55 E 5 10.00 Mostly Cloudy BKN048 BKN120 66.2 64.4 94% 29.94 0.0
04 03:35 S 5 10.00 Partly Cloudy SCT050 SCT110 66.2 64.4 94% 29.96 0.0
04 03:15 SE 5 10.00 Mostly Cloudy BKN050 68 64.4 88% 29.95 0.0
04 02:55 SE 5 10.00 Overcast OVC050 68 64.4 88% 29.96 0.0
04 02:35 E 7 10.00 Mostly Cloudy BKN050 68 64.4 88% 29.95 0.0
04 02:15 E 6 10.00 Partly Cloudy FEW050 FEW090 SCT110 66.2 64.4 94% 29.96 0.0
04 01:55 SE 6 10.00 Mostly Cloudy BKN070 BKN090 BKN120 68 64.4 71.6 64.6 88% 29.97 0.0
04 01:35 SE 5 10.00 Overcast OVC060 66.2 62.6 88% 29.98 0.0
04 01:15 SE 3 10.00 Mostly Cloudy SCT060 BKN090 66.2 62.6 88% 29.98 0.0
04 00:55 E 5 10.00 Partly Cloudy SCT090 66.2 62.6 88% 29.98 0.0
04 00:35 SE 5 10.00 Partly Cloudy SCT090 66.2 62.6 88% 29.98 0.0
04 00:15 SE 3 10.00 Partly Cloudy SCT090 64.4 62.6 94% 29.99 0.0
03 23:55 SE 2 10.00 A Few Clouds FEW090 66.2 62.6 88% 29.99 0.0
03 23:35 E 3 10.00 A Few Clouds FEW090 66.2 62.6 88% 29.98 0.0
03 23:15 E 5 10.00 Partly Cloudy SCT090 64.4 64.4 100% 29.98 0.0
03 22:55 E 2 10.00 A Few Clouds FEW100 66.2 64.4 94% 29.97 0.0
03 22:35 E 2 10.00 Mostly Cloudy BKN100 66.2 64.4 94% 29.97 0.0
03 22:15 SE 2 10.00 Partly Cloudy SCT100 68 64.4 88% 29.97 0.0
03 21:55 Vrbl 2 10.00 Partly Cloudy SCT100 66.2 64.4 94% 29.97 0.0
03 21:35 SW 1 10.00 A Few Clouds FEW100 66.2 64.4 94% 29.97 0.0
03 21:15 SW 2 10.00 Mostly Cloudy BKN100 68 64.4 88% 29.96 0.0
03 20:55 W 1 10.00 Mostly Cloudy BKN100 69.8 64.4 83% 29.95 0.0
03 20:35 Vrbl 1 10.00 A Few Clouds FEW100 69.8 62.6 78% 29.95 0.0
03 20:15 N 3 10.00 Fair CLR 69.8 62.6 78% 29.94 0.0
03 19:55 N 5 10.00 Fair CLR 71.6 62.6 77.5 70.7 73% 29.94 0.0
03 19:35 N 3 10.00 Fair CLR 73.4 62.6 69% 29.94 0.0
03 19:15 NW 3 10.00 Fair CLR 73.4 62.6 69% 29.94 0.0
03 18:55 N 5 10.00 Fair CLR 73.4 62.6 69% 29.93 0.0
03 18:35 N 3 10.00 Mostly Cloudy BKN080 73.4 62.6 69% 29.93 0.0
03 18:15 N 6 10.00 Overcast OVC080 71.6 64.4 78% 29.92 0.0
03 17:55 N 8 10.00 Mostly Cloudy BKN090 73.4 64.4 74% 29.91 0.0
03 17:35 N 12 10.00 Partly Cloudy SCT090 75.2 60.8 61% 77 29.9 0.0
03 17:15 NE 9 10.00 Fair CLR 77 57.2 51% 79 29.9 0.0
03 16:55 NE 10 10.00 Fair CLR 77 60.8 57% 79 29.91 0.0
03 16:35 NE 8 10.00 Fair CLR 77 60.8 57% 79 29.93 0.0
03 16:15 NE 8 10.00 Fair CLR 75.2 62.6 65% 77 29.93 0.0
03 15:55 N 6 10.00 Fair CLR 73.4 64.4 74% 29.94 0.0
03 15:35 N 5 10.00 A Few Clouds FEW043 73.4 62.6 69% 29.95 0.0
03 15:15 N 5 10.00 Partly Cloudy SCT045 73.4 62.6 69% 29.97 0.0
03 14:55 N 3 10.00 Partly Cloudy SCT045 SCT075 71.6 62.6 73% 29.98 0.0
03 14:35 N 5 10.00 Mostly Cloudy BKN075 BKN085 71.6 62.6 73% 29.99 0.0
03 14:15 NW 3 10.00 Overcast BKN060 OVC080 71.6 62.6 73% 30.01 0.0
03 13:55 N 6 10.00 Overcast OVC080 71.6 62.6 73.9 62.2 73% 29.99 0.0
03 13:35 N 8 10.00 Overcast OVC080 71.6 62.6 73% 29.98 0.0
03 13:15 E 7 10.00 Mostly Cloudy BKN080 73.4 59 61% 29.96 0.0
03 12:55 E 7 10.00 Overcast OVC080 73.4 62.6 69% 29.95 0.0
03 12:35 E 6 10.00 Mostly Cloudy BKN080 73.4 60.8 65% 29.96 0.0
03 12:15 N 7 10.00 Fair CLR 73.4 62.6 69% 29.96 0.0
03 11:55 E 6 10.00 Fair CLR 73.4 62.6 69% 29.95 0.0
03 11:35 E 7 10.00 Fair CLR 71.6 62.6 73% 29.95 0.0
03 11:15 E 6 10.00 A Few Clouds FEW043 FEW100 71.6 62.6 73% 29.96 0.0
03 10:55 Vrbl 5 10.00 Fair CLR 71.6 62.6 73% 29.97 0.0
03 10:35 E 3 10.00 Fair CLR 69.8 62.6 78% 29.96 0.0
03 10:15 E 3 10.00 Fair CLR 69.8 64.4 83% 29.96 0.0
03 09:55 E 5 10.00 Fair CLR 69.8 64.4 83% 29.96 0.0
03 09:35 E 6 10.00 Partly Cloudy SCT048 68 64.4 88% 29.96 0.0
03 09:15 E 6 10.00 Mostly Cloudy BKN048 66.2 64.4 94% 29.96 0.0
03 08:55 E 7 10.00 Fair CLR 66.2 62.6 88% 29.97 0.0
03 08:35 SE 3 10.00 Fair CLR 64.4 62.6 94% 29.97 0.0
03 08:15 SE 3 10.00 Partly Cloudy SCT040 64.4 62.6 94% 29.97 0.0
03 07:55 S 3 10.00 Mostly Cloudy BKN040 62.6 62.6 62.4 59.4 100% 29.97 0.0
03 07:35 SE 3 10.00 Fair CLR 60.8 60.8 100% 29.96 0.0
03 07:15 SE 3 10.00 Fair CLR 62.6 60.8 94% 29.96 0.0
03 06:55 SE 2 10.00 A Few Clouds FEW050 60.8 60.8 100% 29.95 0.0
03 06:35 SE 3 10.00 Mostly Cloudy SCT006 BKN050 62.6 62.6 100% 29.95 0.0
03 06:15 SE 3 10.00 Partly Cloudy SCT006 60.8 60.8 100% 29.95 0.0
03 05:55 SE 2 10.00 A Few Clouds FEW049 62.6 60.8 94% 29.95 0.0
03 05:35 SE 3 10.00 Partly Cloudy SCT049 60.8 60.8 100% 29.95 0.0
03 05:15 SE 2 10.00 Fair CLR 62.6 60.8 94% 29.95 0.0
03 04:55 SE 3 10.00 A Few Clouds FEW050 60.8 60.8 100% 29.94 0.0
03 04:35 SE 1 10.00 Partly Cloudy SCT050 62.6 60.8 94% 29.94 0.0
03 04:15 SE 2 10.00 Mostly Cloudy BKN055 60.8 60.8 100% 29.95 0.0
03 03:55 SE 2 10.00 Fair CLR 60.8 59 94% 29.95 0.0
03 03:35 S 2 10.00 Fair CLR 60.8 59 94% 29.94 0.0
03 03:15 E 2 10.00 Fair CLR 60.8 60.8 100% 29.93 0.0
03 02:55 SE 1 10.00 Fair CLR 60.8 59 94% 29.93 0.0
03 02:35 SE 1 10.00 Fair CLR 60.8 59 94% 29.93 0.0
03 02:15 S 3 10.00 Fair CLR 60.8 59 94% 29.94 0.0
03 01:55 Calm 10.00 Fair CLR 60.8 60.8 71.6 60.8 100% 29.93 0.0
03 01:35 E 1 10.00 Fair CLR 60.8 60.8 100% 29.93 0.0
03 01:15 S 1 10.00 Fair CLR 60.8 60.8 100% 29.94 0.0
03 00:55 S 1 10.00 Fair CLR 60.8 59 94% 29.93 0.0
03 00:35 S 1 10.00 Fair CLR 60.8 60.8 100% 29.93 0.0
03 00:15 SW 1 10.00 Fair CLR 62.6 60.8 94% 29.93 0.0
02 23:55 S 1 10.00 Fair CLR 62.6 60.8 94% 29.93 0.0
02 23:35 N 2 10.00 Fair CLR 62.6 60.8 94% 29.92 0.0
02 23:15 S 1 10.00 Fair CLR 62.6 60.8 94% 29.92 0.0
02 22:55 SW 1 10.00 Fair CLR 62.6 62.6 100% 29.92 0.0
02 22:35 SW 2 10.00 Fair CLR 64.4 62.6 94% 29.92 0.0
02 22:15 S 2 10.00 Fair CLR 64.4 62.6 94% 29.92 0.0
02 21:55 SE 1 10.00 Partly Cloudy SCT095 66.2 62.6 88% 29.91 0.0
02 21:35 S 1 10.00 Mostly Cloudy BKN095 66.2 62.6 88% 29.91 0.0
02 21:15 Calm 10.00 A Few Clouds FEW095 66.2 64.4 94% 29.91 0.0
02 20:55 SW 2 10.00 Fair CLR 66.2 62.6 88% 29.9 0.0
02 20:35 Calm 10.00 Fair CLR 68 62.6 83% 29.9 0.0
02 20:15 N 2 10.00 Fair CLR 69.8 62.6 78% 29.9 0.0
02 19:55 N 2 10.00 A Few Clouds FEW100 71.6 60.8 77.7 71.1 69% 29.9 0.0
02 19:35 NW 5 10.00 Fair CLR 71.6 62.6 73% 29.91 0.0
02 19:15 W 5 10.00 Fair CLR 73.4 62.6 69% 29.9 0.0
02 18:55 NW 5 10.00 Fair CLR 73.4 62.6 69% 29.9 0.0
02 18:35 W 6 10.00 Fair CLR 73.4 62.6 69% 29.91 0.0
02 18:15 W 7 10.00 Fair CLR 73.4 62.6 69% 29.9 0.0
Date Time (edt) Wind (mph) Vis. (mi.) Weather Sky Cond. Air Dwpt Max. Min. Relative Humidity Wind Chill (°F) Heat Index (°F) altimeter (in) sea level (mb) 1 hr 3 hr 6 hr
6 hour
Temperature (ºF) Pressure Precipitation (in)